Time;durP1;ratioP1;P1;durP2;ratioP2;P2;SDS_P1;SDS_P2;PMS_P1;PMS_P2;Temp;Humidity;BMP_temperature;BMP_pressure;BME280_temperature;BME280_humidity;BME280_pressure;Samples;Min_cycle;Max_cycle;Signal;HPM_P1;HPM_P2
2023/06/23 00:01:06;;;;;;;12.93;11.73;;;18.00;99.90;;;;;;5040394;28;20538;-76
2023/06/23 00:03:34;;;;;;;13.27;11.90;;;18.00;99.90;;;;;;5034179;28;20496;-76
2023/06/23 00:06:04;;;;;;;11.40;10.40;;;18.00;99.90;;;;;;5036571;28;20964;-77
2023/06/23 00:08:32;;;;;;;12.00;10.80;;;18.00;99.90;;;;;;5036049;28;20471;-77
2023/06/23 00:11:01;;;;;;;13.23;12.03;;;17.90;99.90;;;;;;5033732;28;20549;-77
2023/06/23 00:13:29;;;;;;;14.27;12.87;;;17.90;99.90;;;;;;5033818;28;20479;-77
2023/06/23 00:15:57;;;;;;;14.97;12.53;;;17.90;99.90;;;;;;5034277;28;21055;-76
2023/06/23 00:18:25;;;;;;;14.33;13.00;;;17.90;99.90;;;;;;5033361;28;20475;-74
2023/06/23 00:20:54;;;;;;;12.43;11.13;;;17.90;99.90;;;;;;5034229;28;20975;-77
2023/06/23 00:23:24;;;;;;;12.47;11.27;;;17.80;99.90;;;;;;5034711;28;20439;-77
2023/06/23 00:25:52;;;;;;;11.57;10.47;;;17.80;99.90;;;;;;5031871;28;20454;-74
2023/06/23 00:28:20;;;;;;;12.43;11.23;;;17.80;99.90;;;;;;5034484;28;20518;-75
2023/06/23 00:30:49;;;;;;;11.13;10.03;;;17.80;99.90;;;;;;5032973;28;20453;-75
2023/06/23 00:33:19;;;;;;;10.70;9.57;;;17.80;99.90;;;;;;5032973;28;20504;-76
2023/06/23 00:35:47;;;;;;;10.63;9.30;;;17.80;99.90;;;;;;5032977;28;20443;-76
2023/06/23 00:38:16;;;;;;;10.40;9.37;;;17.80;99.90;;;;;;5032886;28;21016;-76
2023/06/23 00:40:45;;;;;;;9.23;8.30;;;17.80;99.90;;;;;;5032669;28;20533;-77
2023/06/23 00:43:14;;;;;;;9.23;8.27;;;17.80;99.90;;;;;;5032755;28;20866;-76
2023/06/23 00:45:43;;;;;;;9.33;8.40;;;17.80;99.90;;;;;;5032581;28;20482;-76
2023/06/23 00:48:14;;;;;;;9.33;7.37;;;17.70;99.90;;;;;;5032399;28;20471;-74
2023/06/23 00:50:43;;;;;;;8.70;7.63;;;17.70;99.90;;;;;;5032452;28;20923;-74
2023/06/23 00:53:12;;;;;;;9.00;7.60;;;17.70;99.90;;;;;;5032817;28;20454;-75
2023/06/23 00:55:41;;;;;;;8.03;7.23;;;17.70;99.90;;;;;;5032510;28;20453;-74
2023/06/23 00:58:14;;;;;;;8.67;7.73;;;17.70;99.90;;;;;;5032378;28;20467;-75
2023/06/23 01:00:42;;;;;;;9.53;7.37;;;17.70;99.90;;;;;;5032731;28;20899;-76
2023/06/23 01:03:10;;;;;;;12.50;8.23;;;17.70;99.90;;;;;;5032588;28;20542;-76
2023/06/23 01:05:40;;;;;;;9.63;8.37;;;17.70;99.90;;;;;;5033409;28;20443;-75
2023/06/23 01:08:27;;;;;;;10.20;8.97;;;17.60;99.90;;;;;;5033693;28;20799;-75
2023/06/23 01:11:00;;;;;;;12.10;8.90;;;17.60;99.90;;;;;;5032643;28;20935;-76
2023/06/23 01:13:37;;;;;;;14.67;10.63;;;17.60;99.90;;;;;;5032634;28;20497;-76
2023/06/23 01:16:10;;;;;;;13.10;10.60;;;17.60;99.90;;;;;;5033945;28;20468;-76
2023/06/23 01:18:48;;;;;;;11.70;10.50;;;17.60;99.90;;;;;;5034094;28;20962;-75
2023/06/23 01:21:20;;;;;;;11.73;10.53;;;17.60;99.90;;;;;;5032869;28;20428;-74
2023/06/23 01:24:16;;;;;;;12.63;10.27;;;17.60;99.90;;;;;;5033636;28;20424;-76
2023/06/23 01:27:09;;;;;;;11.43;10.00;;;17.60;99.90;;;;;;5033873;28;20478;-76
2023/06/23 01:29:44;;;;;;;13.57;9.97;;;17.60;99.90;;;;;;5032237;28;20536;-76
2023/06/23 01:32:18;;;;;;;14.10;10.13;;;17.60;99.90;;;;;;5033368;28;20417;-74
2023/06/23 01:34:50;;;;;;;10.80;9.70;;;17.60;99.90;;;;;;5033503;28;20430;-76
2023/06/23 01:37:23;;;;;;;10.60;9.50;;;17.60;99.90;;;;;;5035791;28;20466;-76
2023/06/23 01:39:55;;;;;;;11.57;9.13;;;17.60;99.90;;;;;;5036700;28;20463;-75
2023/06/23 01:42:28;;;;;;;10.70;9.60;;;17.60;99.90;;;;;;5037324;28;20509;-74
2023/06/23 01:45:01;;;;;;;10.03;9.03;;;17.60;99.90;;;;;;5042341;28;20389;-74
2023/06/23 01:47:32;;;;;;;10.47;9.37;;;17.60;99.90;;;;;;5038290;28;20955;-75
2023/06/23 01:50:05;;;;;;;13.27;10.00;;;17.60;99.90;;;;;;5038917;28;20903;-74
2023/06/23 01:52:35;;;;;;;9.47;8.17;;;17.50;99.90;;;;;;5036639;28;20443;-74
2023/06/23 01:55:05;;;;;;;11.20;9.20;;;17.50;99.90;;;;;;5036367;28;20533;-74
2023/06/23 01:57:36;;;;;;;12.23;10.97;;;17.50;99.90;;;;;;5036794;28;20497;-74
2023/06/23 02:00:11;;;;;;;9.77;8.77;;;17.50;99.90;;;;;;5037038;28;20420;-74
2023/06/23 02:02:40;;;;;;;10.03;9.03;;;17.50;99.90;;;;;;5038272;28;20743;-74
2023/06/23 02:05:11;;;;;;;10.70;9.67;;;17.50;99.90;;;;;;5038019;28;20413;-74
2023/06/23 02:07:41;;;;;;;10.60;9.50;;;17.50;99.90;;;;;;5037855;28;20450;-74
2023/06/23 02:10:10;;;;;;;9.93;8.93;;;17.50;99.90;;;;;;5037572;28;20430;-73
2023/06/23 02:12:42;;;;;;;13.03;10.00;;;17.50;99.90;;;;;;5036905;28;20476;-74
2023/06/23 02:15:15;;;;;;;12.40;9.73;;;17.50;99.90;;;;;;5036966;28;20418;-74
2023/06/23 02:17:45;;;;;;;10.40;9.40;;;17.50;99.90;;;;;;5036754;28;20519;-74
2023/06/23 02:20:15;;;;;;;10.20;9.00;;;17.50;99.90;;;;;;5036771;28;20545;-74
2023/06/23 02:22:49;;;;;;;10.93;9.77;;;17.50;99.90;;;;;;5037315;28;20425;-74
2023/06/23 02:25:20;;;;;;;14.07;10.30;;;17.50;99.90;;;;;;5037413;28;20454;-74
2023/06/23 02:27:49;;;;;;;13.33;9.93;;;17.50;99.90;;;;;;5038652;28;20487;-74
2023/06/23 02:30:19;;;;;;;11.30;10.03;;;17.50;99.90;;;;;;5038986;28;20467;-75
2023/06/23 02:32:48;;;;;;;11.10;9.93;;;17.50;99.90;;;;;;5037998;28;20421;-74
2023/06/23 02:35:17;;;;;;;14.13;9.73;;;17.50;99.90;;;;;;5038986;28;20431;-74
2023/06/23 02:37:50;;;;;;;10.63;9.63;;;17.50;99.90;;;;;;5037593;28;20441;-74
2023/06/23 02:40:22;;;;;;;11.90;10.67;;;17.50;99.90;;;;;;5039016;28;20867;-74
2023/06/23 02:42:56;;;;;;;13.37;11.57;;;17.50;99.90;;;;;;5037511;28;20418;-74
2023/06/23 02:45:37;;;;;;;11.43;10.27;;;17.50;99.90;;;;;;5037894;28;20771;-75
2023/06/23 02:48:10;;;;;;;13.33;10.60;;;17.50;99.90;;;;;;5036695;28;20487;-74
2023/06/23 02:50:40;;;;;;;14.50;11.63;;;17.50;99.90;;;;;;5038929;28;20422;-75
2023/06/23 02:53:20;;;;;;;12.80;11.47;;;17.50;99.90;;;;;;5038261;28;20417;-75
2023/06/23 02:55:55;;;;;;;13.50;12.07;;;17.50;99.90;;;;;;5040029;28;20445;-76
2023/06/23 02:58:26;;;;;;;14.00;12.50;;;17.50;99.90;;;;;;5038296;28;20437;-75
2023/06/23 03:00:58;;;;;;;14.53;12.80;;;17.50;99.90;;;;;;5039362;28;20921;-76
2023/06/23 03:03:29;;;;;;;12.87;11.53;;;17.50;99.90;;;;;;5039404;28;20466;-76
2023/06/23 03:05:57;;;;;;;14.07;11.63;;;17.50;99.90;;;;;;5039111;28;21036;-75
2023/06/23 03:08:26;;;;;;;13.63;11.57;;;17.50;99.90;;;;;;5039250;28;20458;-75
2023/06/23 03:10:54;;;;;;;12.90;11.60;;;17.50;99.90;;;;;;5038315;28;20645;-75
2023/06/23 03:13:23;;;;;;;13.60;12.20;;;17.50;99.90;;;;;;5038280;28;20517;-75
2023/06/23 03:15:59;;;;;;;12.73;11.30;;;17.50;99.90;;;;;;5039420;28;20418;-75
2023/06/23 03:18:33;;;;;;;11.90;10.70;;;17.50;99.90;;;;;;5037321;28;20445;-75
2023/06/23 03:21:05;;;;;;;12.30;11.10;;;17.50;99.90;;;;;;5038486;28;20435;-75
2023/06/23 03:23:37;;;;;;;12.40;11.20;;;17.50;99.90;;;;;;5038520;28;20413;-74
2023/06/23 03:26:07;;;;;;;13.93;12.10;;;17.50;99.90;;;;;;5038006;28;20443;-75
2023/06/23 03:28:43;;;;;;;13.10;11.70;;;17.50;99.90;;;;;;5038218;28;20507;-75
2023/06/23 03:31:15;;;;;;;13.03;11.50;;;17.50;99.90;;;;;;5039118;28;20402;-75
2023/06/23 03:33:45;;;;;;;12.77;11.47;;;17.50;99.90;;;;;;5038075;28;20467;-76
2023/06/23 03:36:20;;;;;;;13.63;12.23;;;17.50;99.90;;;;;;5038348;28;20425;-75
2023/06/23 03:38:57;;;;;;;13.63;11.40;;;17.50;99.90;;;;;;5038655;28;20463;-75
2023/06/23 03:41:29;;;;;;;14.93;12.03;;;17.50;99.90;;;;;;5038517;28;20420;-75
2023/06/23 03:44:00;;;;;;;12.50;11.30;;;17.50;99.90;;;;;;5037676;28;20471;-75
2023/06/23 03:46:39;;;;;;;14.20;12.80;;;17.50;99.90;;;;;;5038502;28;20487;-75
2023/06/23 03:49:11;;;;;;;13.43;12.13;;;17.50;99.90;;;;;;5036716;28;20452;-75
2023/06/23 03:51:41;;;;;;;13.90;12.40;;;17.50;99.90;;;;;;5038867;28;20469;-76
2023/06/23 03:54:11;;;;;;;14.83;13.03;;;17.60;99.90;;;;;;5036592;28;20434;-75
2023/06/23 03:56:42;;;;;;;17.40;14.43;;;17.60;99.90;;;;;;5036641;28;20445;-75
2023/06/23 03:59:14;;;;;;;15.40;13.80;;;17.60;99.90;;;;;;5036281;28;20468;-75
2023/06/23 04:01:45;;;;;;;16.93;14.17;;;17.60;99.90;;;;;;5036120;28;20980;-75
2023/06/23 04:04:15;;;;;;;19.97;16.00;;;17.60;99.90;;;;;;5035665;28;20886;-75
2023/06/23 04:06:48;;;;;;;16.60;14.80;;;17.60;99.90;;;;;;5034755;28;20470;-75
2023/06/23 04:09:19;;;;;;;17.03;15.17;;;17.60;99.90;;;;;;5035588;28;20534;-75
2023/06/23 04:11:50;;;;;;;17.90;16.20;;;17.70;99.90;;;;;;5035909;28;20397;-75
2023/06/23 04:14:20;;;;;;;17.70;16.00;;;17.70;99.90;;;;;;5035740;28;20923;-76
2023/06/23 04:16:52;;;;;;;17.67;15.87;;;17.70;99.90;;;;;;5033800;28;20451;-75
2023/06/23 04:19:26;;;;;;;18.60;16.77;;;17.80;99.90;;;;;;5035086;28;20518;-75
2023/06/23 04:21:55;;;;;;;18.33;16.43;;;17.80;99.90;;;;;;5035809;28;20461;-75
2023/06/23 04:24:24;;;;;;;18.87;16.97;;;17.80;99.90;;;;;;5035543;28;20496;-75
2023/06/23 04:26:56;;;;;;;21.67;19.17;;;17.80;99.90;;;;;;5036330;28;20405;-75
2023/06/23 04:29:25;;;;;;;19.70;17.80;;;17.80;99.90;;;;;;5036452;28;20524;-75
2023/06/23 04:31:56;;;;;;;19.00;17.20;;;17.80;99.90;;;;;;5035897;28;20416;-75
2023/06/23 04:34:24;;;;;;;18.87;16.77;;;17.90;99.90;;;;;;5033757;28;20462;-74
2023/06/23 04:37:01;;;;;;;19.77;16.50;;;17.90;99.90;;;;;;5034359;28;20442;-76
2023/06/23 04:39:37;;;;;;;17.53;15.93;;;17.90;99.90;;;;;;5035112;28;20443;-75
2023/06/23 04:42:10;;;;;;;16.63;14.90;;;17.90;99.90;;;;;;5034702;28;20422;-74
2023/06/23 04:44:48;;;;;;;15.47;13.87;;;18.00;99.90;;;;;;5038609;28;20450;-75
2023/06/23 04:47:21;;;;;;;16.43;14.83;;;18.00;99.90;;;;;;5036929;28;20418;-74
2023/06/23 04:49:55;;;;;;;14.23;12.67;;;18.00;99.90;;;;;;5034983;28;20454;-74
2023/06/23 04:52:26;;;;;;;15.13;12.67;;;18.00;99.90;;;;;;5034692;28;20419;-74
2023/06/23 04:54:58;;;;;;;12.03;10.53;;;18.00;99.90;;;;;;5032774;28;20441;-73
2023/06/23 04:57:30;;;;;;;12.20;10.50;;;18.00;99.90;;;;;;5033921;28;20465;-75
2023/06/23 05:00:03;;;;;;;13.30;10.07;;;18.00;99.90;;;;;;5033491;28;20423;-74
2023/06/23 05:02:35;;;;;;;10.90;8.80;;;17.90;99.90;;;;;;5034022;28;20480;-74
2023/06/23 05:05:07;;;;;;;11.37;8.73;;;17.90;99.90;;;;;;5033375;28;20856;-72
2023/06/23 05:07:38;;;;;;;9.80;8.37;;;17.90;99.90;;;;;;5033460;28;20462;-72
2023/06/23 05:10:08;;;;;;;8.63;7.77;;;17.90;99.90;;;;;;5033441;28;20465;-72
2023/06/23 05:12:39;;;;;;;11.83;8.43;;;17.90;99.90;;;;;;5036898;28;20398;-72
2023/06/23 05:15:09;;;;;;;9.43;8.40;;;17.90;99.90;;;;;;5036997;28;20459;-72
2023/06/23 05:17:39;;;;;;;11.00;9.20;;;17.90;99.90;;;;;;5037021;28;20471;-72
2023/06/23 05:20:11;;;;;;;9.67;8.33;;;17.80;99.90;;;;;;5037019;28;20406;-72
2023/06/23 05:22:40;;;;;;;9.30;8.03;;;17.80;99.90;;;;;;5035784;28;20457;-72
2023/06/23 05:25:10;;;;;;;9.10;7.87;;;17.80;99.90;;;;;;5037365;28;20492;-72
2023/06/23 05:27:40;;;;;;;9.47;8.40;;;17.80;99.90;;;;;;5036695;28;20454;-72
2023/06/23 05:30:11;;;;;;;10.13;9.03;;;17.80;99.90;;;;;;5036993;28;20430;-72
2023/06/23 05:32:42;;;;;;;8.80;7.70;;;17.80;99.90;;;;;;5035438;28;20505;-72
2023/06/23 05:35:13;;;;;;;10.00;8.27;;;17.80;99.90;;;;;;5036494;28;20966;-72
2023/06/23 05:37:43;;;;;;;10.20;8.00;;;17.80;99.90;;;;;;5036792;28;20451;-72
2023/06/23 05:40:14;;;;;;;9.67;8.77;;;17.80;99.90;;;;;;5036448;28;20421;-72
2023/06/23 05:42:42;;;;;;;9.80;8.80;;;17.80;99.90;;;;;;5037235;28;20392;-72
2023/06/23 05:45:12;;;;;;;10.83;9.53;;;17.80;99.90;;;;;;5035356;28;20445;-72
2023/06/23 05:47:48;;;;;;;10.53;8.93;;;17.80;99.90;;;;;;5036263;28;20459;-71
2023/06/23 05:50:20;;;;;;;10.53;9.43;;;17.80;99.90;;;;;;5036822;28;20419;-72
2023/06/23 05:52:57;;;;;;;11.33;10.00;;;17.80;99.90;;;;;;5037114;28;20477;-72
2023/06/23 05:55:27;;;;;;;10.83;9.73;;;17.80;99.90;;;;;;5036790;28;20473;-72
2023/06/23 05:58:00;;;;;;;11.07;10.00;;;17.80;99.90;;;;;;5036713;28;20430;-72
2023/06/23 06:00:33;;;;;;;10.53;9.53;;;17.80;99.90;;;;;;5037108;28;20394;-72
2023/06/23 06:03:08;;;;;;;11.00;9.80;;;17.80;99.90;;;;;;5037418;28;20422;-72
2023/06/23 06:05:40;;;;;;;11.53;10.10;;;17.80;99.90;;;;;;5037724;28;20402;-72
2023/06/23 06:08:09;;;;;;;13.23;11.40;;;17.80;99.90;;;;;;5037460;28;20528;-72
2023/06/23 06:10:39;;;;;;;13.00;10.47;;;17.90;99.90;;;;;;5036211;28;20425;-72
2023/06/23 06:13:09;;;;;;;12.30;10.67;;;17.90;99.90;;;;;;5036325;28;20428;-72
2023/06/23 06:15:38;;;;;;;13.43;11.47;;;17.90;99.90;;;;;;5036225;28;20474;-72
2023/06/23 06:18:11;;;;;;;12.07;10.43;;;17.90;99.90;;;;;;5036404;28;20462;-72
2023/06/23 06:20:43;;;;;;;11.37;10.17;;;17.90;99.90;;;;;;5034999;28;20856;-72
2023/06/23 06:23:14;;;;;;;12.00;10.70;;;17.90;99.90;;;;;;5033643;28;20453;-72
2023/06/23 06:25:57;;;;;;;14.30;10.70;;;17.90;99.90;;;;;;5036397;28;20489;-72
2023/06/23 06:28:27;;;;;;;14.50;12.17;;;18.00;99.90;;;;;;5036201;28;20433;-72
2023/06/23 06:30:58;;;;;;;13.00;11.27;;;17.90;99.90;;;;;;5034875;28;20459;-72
2023/06/23 06:33:29;;;;;;;15.40;11.40;;;18.00;99.90;;;;;;5036533;28;20472;-72
2023/06/23 06:36:03;;;;;;;13.57;12.17;;;18.00;99.90;;;;;;5036673;28;20965;-72
2023/06/23 06:38:35;;;;;;;13.77;12.33;;;18.00;99.90;;;;;;5036477;28;20963;-72
2023/06/23 06:41:05;;;;;;;13.67;12.17;;;18.00;99.90;;;;;;5036420;28;20406;-72
2023/06/23 06:43:33;;;;;;;15.00;12.23;;;18.00;99.90;;;;;;5034922;28;20807;-72
2023/06/23 06:46:03;;;;;;;14.80;12.80;;;18.00;99.90;;;;;;5036466;28;20439;-73
2023/06/23 06:48:35;;;;;;;14.30;12.63;;;18.10;99.90;;;;;;5035926;28;20450;-72
2023/06/23 06:51:04;;;;;;;16.70;13.37;;;18.00;99.90;;;;;;5036076;28;20863;-73
2023/06/23 06:53:32;;;;;;;14.33;12.60;;;18.00;99.90;;;;;;5034845;28;20480;-72
2023/06/23 06:56:01;;;;;;;14.67;13.17;;;18.10;99.90;;;;;;5036125;28;20467;-73
2023/06/23 06:58:29;;;;;;;14.00;12.60;;;18.10;99.90;;;;;;5035059;28;20521;-72
2023/06/23 07:00:59;;;;;;;15.80;14.27;;;18.10;99.90;;;;;;5036994;28;20410;-72
2023/06/23 07:03:27;;;;;;;16.23;14.60;;;18.10;99.90;;;;;;5036870;28;20394;-73
2023/06/23 07:05:57;;;;;;;15.20;13.13;;;18.10;99.90;;;;;;5037248;28;20413;-72
2023/06/23 07:08:25;;;;;;;16.03;14.43;;;18.10;99.90;;;;;;5035966;28;20458;-72
2023/06/23 07:10:53;;;;;;;15.90;13.10;;;18.10;99.90;;;;;;5036634;28;20442;-72
2023/06/23 07:13:21;;;;;;;15.33;13.70;;;18.10;99.90;;;;;;5035368;28;20542;-72
2023/06/23 07:15:49;;;;;;;15.70;14.00;;;18.10;99.90;;;;;;5035946;28;20558;-71
2023/06/23 07:18:18;;;;;;;15.30;13.63;;;18.10;99.90;;;;;;5035788;28;20547;-72
2023/06/23 07:20:46;;;;;;;15.70;13.93;;;18.10;99.90;;;;;;5034631;28;20451;-72
2023/06/23 07:23:15;;;;;;;16.13;14.43;;;18.10;99.90;;;;;;5035976;28;20435;-73
2023/06/23 07:25:43;;;;;;;17.50;15.10;;;18.20;99.90;;;;;;5034803;28;20819;-71
2023/06/23 07:28:12;;;;;;;15.13;13.30;;;18.20;99.90;;;;;;5036304;28;20890;-71
2023/06/23 07:30:40;;;;;;;16.60;14.80;;;18.20;99.90;;;;;;5035873;28;20490;-72
2023/06/23 07:33:09;;;;;;;17.20;14.77;;;18.20;99.90;;;;;;5036662;28;20417;-71
2023/06/23 07:35:38;;;;;;;16.17;14.47;;;18.20;99.90;;;;;;5037445;28;20439;-72
2023/06/23 07:38:06;;;;;;;16.10;14.40;;;18.20;99.90;;;;;;5036706;28;20464;-71
2023/06/23 07:40:35;;;;;;;19.37;14.33;;;18.30;99.90;;;;;;5036795;28;20517;-72
2023/06/23 07:43:03;;;;;;;17.03;15.33;;;18.30;99.90;;;;;;5036636;28;20529;-72
2023/06/23 07:45:31;;;;;;;17.40;14.93;;;18.30;99.90;;;;;;5036158;28;20501;-72
2023/06/23 07:48:00;;;;;;;15.93;14.33;;;18.40;99.90;;;;;;5036029;28;20426;-72
2023/06/23 07:50:28;;;;;;;17.50;14.73;;;18.40;99.90;;;;;;5036307;28;20494;-72
2023/06/23 07:52:57;;;;;;;18.53;15.03;;;18.40;99.90;;;;;;5037063;28;20435;-72
2023/06/23 07:55:25;;;;;;;16.30;14.60;;;18.40;99.90;;;;;;5036451;28;20537;-72
2023/06/23 07:57:55;;;;;;;16.93;15.13;;;18.50;99.90;;;;;;5037189;28;20875;-72
2023/06/23 08:00:24;;;;;;;16.37;14.70;;;18.50;99.90;;;;;;5036135;28;20439;-72
2023/06/23 08:02:52;;;;;;;16.63;13.93;;;18.50;99.90;;;;;;5039173;28;20439;-72
2023/06/23 08:05:21;;;;;;;16.77;15.10;;;18.50;99.90;;;;;;5037955;28;20471;-73
2023/06/23 08:07:49;;;;;;;16.37;14.67;;;18.60;99.90;;;;;;5037617;28;20859;-73
2023/06/23 08:10:17;;;;;;;18.90;15.50;;;18.60;99.90;;;;;;5036447;28;20414;-73
2023/06/23 08:12:45;;;;;;;18.77;16.83;;;18.60;99.90;;;;;;5034578;28;20450;-72
2023/06/23 08:15:15;;;;;;;16.70;14.47;;;18.60;99.90;;;;;;5035834;28;21006;-72
2023/06/23 08:17:43;;;;;;;18.73;16.40;;;18.60;99.90;;;;;;5034668;28;20486;-72
2023/06/23 08:20:12;;;;;;;17.13;15.50;;;18.60;99.90;;;;;;5034447;28;20451;-72
2023/06/23 08:22:40;;;;;;;15.43;13.93;;;18.70;99.90;;;;;;5036175;28;20430;-72
2023/06/23 08:25:09;;;;;;;17.57;15.70;;;18.70;99.90;;;;;;5036091;28;20434;-73
2023/06/23 08:27:37;;;;;;;19.90;15.70;;;18.70;99.90;;;;;;5035587;28;21775;-73
2023/06/23 08:30:08;;;;;;;18.87;16.07;;;18.70;99.90;;;;;;5035518;28;20447;-75
2023/06/23 08:32:37;;;;;;;15.37;13.90;;;18.70;99.90;;;;;;5036671;28;20427;-72
2023/06/23 08:35:06;;;;;;;16.43;14.77;;;18.70;99.90;;;;;;5036670;28;20442;-73
2023/06/23 08:37:36;;;;;;;19.00;15.10;;;18.80;99.90;;;;;;5036388;28;20466;-73
2023/06/23 08:40:06;;;;;;;17.13;15.33;;;18.80;99.90;;;;;;5036511;28;20439;-73
2023/06/23 08:42:34;;;;;;;17.00;15.20;;;18.80;99.90;;;;;;5037090;28;20453;-72
2023/06/23 08:45:04;;;;;;;16.13;14.53;;;18.80;99.90;;;;;;5035814;28;20431;-73
2023/06/23 08:47:35;;;;;;;15.77;14.10;;;18.80;99.90;;;;;;5039989;28;20995;-74
2023/06/23 08:50:06;;;;;;;15.97;14.27;;;18.80;99.90;;;;;;5040044;28;20433;-73
2023/06/23 08:52:35;;;;;;;16.70;15.00;;;18.80;99.90;;;;;;5040697;28;20927;-73
2023/06/23 08:55:04;;;;;;;16.97;14.60;;;18.90;99.90;;;;;;5041218;28;20438;-72
2023/06/23 08:57:34;;;;;;;17.10;14.87;;;18.90;99.90;;;;;;5038208;28;21023;-72
2023/06/23 09:00:02;;;;;;;15.73;14.00;;;18.90;99.90;;;;;;5041695;28;20447;-72
2023/06/23 09:02:31;;;;;;;17.50;15.20;;;18.90;99.90;;;;;;5041387;28;20439;-73
2023/06/23 09:05:00;;;;;;;16.37;14.27;;;18.90;99.90;;;;;;5040621;28;20435;-73
2023/06/23 09:07:30;;;;;;;16.33;14.27;;;18.90;99.90;;;;;;5041504;28;20470;-72
2023/06/23 09:09:58;;;;;;;14.93;13.10;;;19.00;99.90;;;;;;5039591;28;20442;-74
2023/06/23 09:12:26;;;;;;;15.13;13.63;;;19.00;99.90;;;;;;5036619;28;20464;-73
2023/06/23 09:14:58;;;;;;;16.50;14.80;;;19.00;99.90;;;;;;5041555;28;20474;-74
2023/06/23 09:17:27;;;;;;;16.53;14.83;;;19.00;99.90;;;;;;5042052;28;20467;-73
2023/06/23 09:19:56;;;;;;;17.43;14.23;;;19.00;99.90;;;;;;5040444;28;20434;-73
2023/06/23 09:22:24;;;;;;;16.67;14.37;;;19.10;99.90;;;;;;5040841;28;20497;-73
2023/06/23 09:24:54;;;;;;;15.70;14.10;;;19.10;99.90;;;;;;5041731;28;20466;-73
2023/06/23 09:27:40;;;;;;;14.20;12.80;;;19.10;99.90;;;;;;5041518;28;20800;-74
2023/06/23 09:30:09;;;;;;;16.17;14.13;;;19.10;99.90;;;;;;5040245;28;20457;-74
2023/06/23 09:32:38;;;;;;;15.63;14.07;;;19.10;99.90;;;;;;5039368;28;20960;-74
2023/06/23 09:35:06;;;;;;;16.30;14.60;;;19.10;99.90;;;;;;5041201;28;20434;-74
2023/06/23 09:37:37;;;;;;;16.13;14.50;;;19.20;99.90;;;;;;5039551;28;20437;-73
2023/06/23 09:40:09;;;;;;;15.47;13.87;;;19.20;99.90;;;;;;5040889;28;20443;-74
2023/06/23 09:42:44;;;;;;;15.43;13.83;;;19.30;99.90;;;;;;5040723;28;20409;-74
2023/06/23 09:45:18;;;;;;;14.10;12.67;;;19.30;99.90;;;;;;5038359;28;20529;-73
2023/06/23 09:47:48;;;;;;;15.63;13.60;;;19.40;99.90;;;;;;5039154;28;20900;-73
2023/06/23 09:50:18;;;;;;;16.90;15.23;;;19.40;99.90;;;;;;5040384;28;20422;-74
2023/06/23 09:52:46;;;;;;;18.23;14.70;;;19.50;99.90;;;;;;5040507;28;21014;-74
2023/06/23 09:55:17;;;;;;;15.20;13.70;;;19.60;99.90;;;;;;5039736;28;20522;-74
2023/06/23 09:57:47;;;;;;;16.57;14.77;;;19.70;99.90;;;;;;5039759;28;20983;-73
2023/06/23 10:00:17;;;;;;;17.70;14.37;;;19.70;99.90;;;;;;5040778;28;20967;-74
2023/06/23 10:02:46;;;;;;;17.63;15.77;;;19.80;99.90;;;;;;5040049;28;20834;-74
2023/06/23 10:05:17;;;;;;;15.17;13.67;;;19.90;99.90;;;;;;5038922;28;20945;-73
2023/06/23 10:07:45;;;;;;;17.47;15.57;;;20.00;99.90;;;;;;5040608;28;20880;-73
2023/06/23 10:10:17;;;;;;;15.57;14.07;;;20.10;99.90;;;;;;5041208;28;20439;-73
2023/06/23 10:12:50;;;;;;;16.47;14.77;;;20.10;99.90;;;;;;5041112;28;20437;-74
2023/06/23 10:15:18;;;;;;;15.03;13.53;;;20.20;99.90;;;;;;5041530;28;20798;-74
2023/06/23 10:17:46;;;;;;;15.07;13.47;;;20.20;99.90;;;;;;5040974;28;20482;-73
2023/06/23 10:20:15;;;;;;;19.73;14.23;;;20.30;99.90;;;;;;5040587;28;20439;-74
2023/06/23 10:22:45;;;;;;;15.37;13.60;;;20.30;99.90;;;;;;5042319;28;20435;-75
2023/06/23 10:25:14;;;;;;;13.63;12.33;;;20.40;99.90;;;;;;5040752;28;20450;-74
2023/06/23 10:27:46;;;;;;;13.87;11.90;;;20.50;99.90;;;;;;5043342;28;20463;-73
2023/06/23 10:30:18;;;;;;;15.10;12.00;;;20.50;99.90;;;;;;5041411;28;20520;-74
2023/06/23 10:32:53;;;;;;;12.23;9.87;;;20.50;99.90;;;;;;5040918;28;20433;-73
2023/06/23 10:35:23;;;;;;;11.90;9.83;;;20.60;99.90;;;;;;5042993;28;20506;-74
2023/06/23 10:38:02;;;;;;;13.30;10.10;;;20.80;99.90;;;;;;5042109;28;20478;-75
2023/06/23 10:40:39;;;;;;;11.27;10.07;;;20.80;99.90;;;;;;5040926;28;20795;-73
2023/06/23 10:43:11;;;;;;;10.67;9.57;;;20.90;99.90;;;;;;5034814;28;20439;-74
2023/06/23 10:45:41;;;;;;;12.10;10.10;;;20.90;99.90;;;;;;5036569;28;20415;-75
2023/06/23 10:48:09;;;;;;;13.17;11.10;;;21.00;99.90;;;;;;5033784;28;20470;-74
2023/06/23 10:50:39;;;;;;;13.53;12.17;;;21.10;99.90;;;;;;5033856;28;20525;-74
2023/06/23 10:53:18;;;;;;;13.40;12.07;;;21.20;99.90;;;;;;5034147;28;20530;-74
2023/06/23 10:55:47;;;;;;;12.47;11.20;;;21.30;99.90;;;;;;5034955;28;21035;-74
2023/06/23 10:58:50;;;;;;;13.43;11.80;;;21.40;99.90;;;;;;5035335;28;21025;-74
2023/06/23 11:01:18;;;;;;;12.97;11.47;;;21.50;99.90;;;;;;5033695;28;20530;-74
2023/06/23 11:03:51;;;;;;;12.80;11.60;;;21.50;99.90;;;;;;5035060;28;20529;-74
2023/06/23 11:06:28;;;;;;;16.03;11.67;;;21.60;99.90;;;;;;5035426;28;20845;-74
2023/06/23 11:08:57;;;;;;;13.27;11.87;;;21.60;99.90;;;;;;5034382;28;20461;-74
2023/06/23 11:11:33;;;;;;;13.83;12.43;;;21.60;99.90;;;;;;5034708;28;20438;-74
2023/06/23 11:14:03;;;;;;;14.17;12.67;;;21.60;99.90;;;;;;5034505;28;20470;-74
2023/06/23 11:16:34;;;;;;;12.97;11.77;;;21.60;99.90;;;;;;5034843;28;20928;-74
2023/06/23 11:19:02;;;;;;;15.00;13.10;;;21.60;99.90;;;;;;5034514;28;20471;-74
2023/06/23 11:21:33;;;;;;;13.00;11.70;;;21.70;99.90;;;;;;5033356;28;20481;-74
2023/06/23 11:24:15;;;;;;;14.83;13.23;;;21.70;99.90;;;;;;5035456;28;20450;-74
2023/06/23 11:26:55;;;;;;;13.47;12.07;;;21.70;99.90;;;;;;5036852;28;20447;-74
2023/06/23 11:29:25;;;;;;;13.60;12.13;;;21.80;99.90;;;;;;5034509;28;20486;-74
2023/06/23 11:32:06;;;;;;;14.53;12.37;;;21.80;99.90;;;;;;5035247;28;20486;-74
2023/06/23 11:34:55;;;;;;;14.23;12.23;;;21.90;99.90;;;;;;5034614;28;20423;-75
2023/06/23 11:37:26;;;;;;;11.43;10.30;;;22.00;99.90;;;;;;5034548;28;20506;-75
2023/06/23 11:39:55;;;;;;;14.37;10.63;;;22.00;99.90;;;;;;5034289;28;20427;-74
2023/06/23 11:42:24;;;;;;;13.37;11.63;;;22.10;99.90;;;;;;5034382;28;20453;-74
2023/06/23 11:44:57;;;;;;;12.40;10.10;;;22.20;99.90;;;;;;5032825;28;20446;-74
2023/06/23 11:47:25;;;;;;;13.23;11.83;;;22.20;99.90;;;;;;5032923;28;20493;-74
2023/06/23 11:49:58;;;;;;;12.40;11.13;;;22.30;99.90;;;;;;5034066;28;20967;-74
2023/06/23 11:52:27;;;;;;;12.67;11.30;;;22.30;99.90;;;;;;5034039;28;20526;-74
2023/06/23 11:54:57;;;;;;;13.90;10.60;;;22.40;99.90;;;;;;5032680;28;20466;-74
2023/06/23 11:57:25;;;;;;;11.73;9.60;;;22.40;99.90;;;;;;5034145;28;20434;-73
2023/06/23 11:59:55;;;;;;;13.87;9.40;;;22.50;99.90;;;;;;5033738;28;20497;-73
2023/06/23 12:02:24;;;;;;;12.10;9.90;;;22.50;99.90;;;;;;5034187;28;20439;-75
2023/06/23 12:04:52;;;;;;;11.37;9.67;;;22.50;99.90;;;;;;5033756;28;20439;-74
2023/06/23 12:07:25;;;;;;;12.90;10.60;;;22.60;99.90;;;;;;5032375;28;20546;-74
2023/06/23 12:09:53;;;;;;;11.40;10.27;;;22.60;99.90;;;;;;5034333;28;20427;-74
2023/06/23 12:12:21;;;;;;;12.30;9.20;;;22.60;99.90;;;;;;5034013;28;20795;-74
2023/06/23 12:14:49;;;;;;;10.97;9.70;;;22.60;99.90;;;;;;5033550;28;20435;-74
2023/06/23 12:17:19;;;;;;;10.63;9.50;;;22.60;99.90;;;;;;5033817;28;20493;-74
2023/06/23 12:19:48;;;;;;;13.13;9.77;;;22.70;99.90;;;;;;5033636;28;20466;-74
2023/06/23 12:22:17;;;;;;;12.53;10.03;;;22.70;99.90;;;;;;5033847;28;20477;-74
2023/06/23 12:24:47;;;;;;;13.70;10.30;;;22.80;99.90;;;;;;5033693;28;20774;-74
2023/06/23 12:27:15;;;;;;;11.80;9.03;;;22.80;99.90;;;;;;5033892;28;20435;-74
2023/06/23 12:29:43;;;;;;;10.67;9.67;;;22.90;99.90;;;;;;5033262;28;20482;-74
2023/06/23 12:32:11;;;;;;;11.53;9.90;;;22.90;99.90;;;;;;5032111;28;20839;-74
2023/06/23 12:34:45;;;;;;;10.47;9.33;;;22.90;99.90;;;;;;5033210;28;21002;-74
2023/06/23 12:37:15;;;;;;;9.10;8.20;;;22.90;99.90;;;;;;5033537;28;20909;-74
2023/06/23 12:39:51;;;;;;;8.93;8.03;;;22.90;99.90;;;;;;5033137;28;21062;-74
2023/06/23 12:42:21;;;;;;;10.00;7.03;;;22.90;99.90;;;;;;5033310;28;20422;-74
2023/06/23 12:44:50;;;;;;;11.10;8.40;;;22.90;99.90;;;;;;5033148;28;20537;-75
2023/06/23 12:47:18;;;;;;;10.40;7.30;;;22.90;99.90;;;;;;5033057;28;20434;-76
2023/06/23 12:49:50;;;;;;;9.40;7.93;;;22.90;99.90;;;;;;5031938;28;20447;-74